Time;durP1;ratioP1;P1;durP2;ratioP2;P2;SDS_P1;SDS_P2;PMS_P1;PMS_P2;Temp;Humidity;BMP_temperature;BMP_pressure;BME280_temperature;BME280_humidity;BME280_pressure;Samples;Min_cycle;Max_cycle;Signal;HPM_P1;HPM_P2
2021/01/11 00:01:27;;;;;;;64.40;30.73;;;;;;;3.20;62.62;100709.56;5063789;28;20052;-71
2021/01/11 00:03:53;;;;;;;61.95;30.55;;;;;;;3.21;62.67;100710.44;5064716;28;20123;-73
2021/01/11 00:06:19;;;;;;;65.00;31.90;;;;;;;3.21;62.49;100708.69;5063342;28;20086;-74
2021/01/11 00:08:46;;;;;;;59.13;31.58;;;;;;;3.19;62.79;100699.22;5063261;28;20060;-73
2021/01/11 00:11:20;;;;;;;57.38;31.70;;;;;;;3.21;62.89;100702.63;5061478;28;20702;-74
2021/01/11 00:13:46;;;;;;;53.45;29.05;;;;;;;3.21;62.67;100695.63;5064336;28;20048;-71
2021/01/11 00:16:13;;;;;;;50.22;27.90;;;;;;;3.20;62.81;100704.34;5062730;28;20135;-72
2021/01/11 00:18:39;;;;;;;65.95;31.73;;;;;;;3.23;62.77;100701.63;5063951;28;20045;-74
2021/01/11 00:21:07;;;;;;;56.85;31.25;;;;;;;3.24;62.79;100705.97;5064656;28;20349;-70
2021/01/11 00:23:33;;;;;;;61.17;29.92;;;;;;;3.25;62.69;100701.59;5062167;28;20056;-70
2021/01/11 00:26:03;;;;;;;59.80;29.02;;;;;;;3.27;62.85;100699.78;5062627;28;20055;-70
2021/01/11 00:28:30;;;;;;;56.38;27.08;;;;;;;3.24;62.92;100700.75;5064358;28;20040;-70
2021/01/11 00:30:56;;;;;;;58.58;31.60;;;;;;;3.36;62.59;100696.84;5062927;28;20048;-70
2021/01/11 00:33:23;;;;;;;67.40;35.45;;;;;;;3.32;62.56;100700.47;5063730;28;20098;-70
2021/01/11 00:35:49;;;;;;;72.53;33.53;;;;;;;3.28;62.88;100705.84;5063489;28;20083;-70
2021/01/11 00:38:16;;;;;;;76.82;37.25;;;;;;;3.27;62.93;100706.75;5064143;28;20045;-70
2021/01/11 00:40:42;;;;;;;81.93;43.42;;;;;;;3.29;62.85;100713.63;5063835;28;20152;-71
2021/01/11 00:43:10;;;;;;;83.93;40.80;;;;;;;3.31;62.92;100708.34;5065858;28;20488;-74
2021/01/11 00:45:38;;;;;;;93.97;45.30;;;;;;;3.34;62.86;100716.09;5065578;28;20040;-72
2021/01/11 00:48:05;;;;;;;116.68;52.35;;;;;;;3.35;62.93;100713.44;5064909;28;20127;-70
2021/01/11 00:50:31;;;;;;;117.93;57.55;;;;;;;3.35;62.73;100715.16;5064453;28;20048;-70
2021/01/11 00:52:57;;;;;;;129.02;60.38;;;;;;;3.35;62.87;100713.44;5063784;28;20047;-70
2021/01/11 00:55:24;;;;;;;141.98;71.85;;;;;;;3.48;62.68;100719.06;5063712;28;20048;-70
2021/01/11 00:57:50;;;;;;;134.18;58.30;;;;;;;3.40;62.74;100728.91;5063563;28;20075;-71
2021/01/11 01:00:17;;;;;;;92.13;47.75;;;;;;;3.52;62.49;100723.25;5064266;28;20045;-71
2021/01/11 01:02:45;;;;;;;116.13;54.60;;;;;;;3.50;62.63;100726.84;5063471;28;20071;-69
2021/01/11 01:05:12;;;;;;;115.93;57.28;;;;;;;3.47;62.74;100726.94;5063752;28;20052;-71
2021/01/11 01:07:39;;;;;;;118.30;55.97;;;;;;;3.49;62.73;100723.34;5064420;28;20061;-69
2021/01/11 01:10:06;;;;;;;99.53;50.47;;;;;;;3.62;62.65;100726.41;5064643;28;20052;-70
2021/01/11 01:12:33;;;;;;;97.38;50.53;;;;;;;3.67;62.36;100724.47;5062540;28;20056;-70
2021/01/11 01:14:59;;;;;;;95.53;48.78;;;;;;;3.67;62.43;100732.28;5063809;28;20660;-70
2021/01/11 01:17:26;;;;;;;92.20;44.85;;;;;;;3.67;62.44;100728.84;5064612;28;20045;-72
2021/01/11 01:19:53;;;;;;;90.40;44.95;;;;;;;3.64;62.57;100725.44;5063948;28;20045;-69
2021/01/11 01:22:20;;;;;;;81.28;41.75;;;;;;;3.64;62.46;100725.44;5064096;28;20094;-70
2021/01/11 01:24:46;;;;;;;78.10;41.80;;;;;;;3.63;62.38;100718.50;5064259;28;20064;-71
2021/01/11 01:27:12;;;;;;;84.78;42.88;;;;;;;3.62;62.52;100719.41;5064474;28;20117;-71
2021/01/11 01:29:39;;;;;;;76.72;37.10;;;;;;;3.60;62.39;100718.63;5063470;28;20098;-71
2021/01/11 01:32:06;;;;;;;81.97;38.08;;;;;;;3.56;62.51;100718.78;5064283;28;20064;-70
2021/01/11 01:34:32;;;;;;;80.40;38.10;;;;;;;3.52;62.70;100722.41;5064126;28;20541;-70
2021/01/11 01:36:59;;;;;;;74.65;38.47;;;;;;;3.55;62.67;100714.47;5067519;28;20692;-70
2021/01/11 01:39:26;;;;;;;73.32;38.00;;;;;;;3.52;62.63;100710.19;5069063;28;20048;-71
2021/01/11 01:41:52;;;;;;;73.68;37.92;;;;;;;3.50;62.74;100714.63;5066004;28;20048;-70
2021/01/11 01:44:18;;;;;;;78.68;38.85;;;;;;;3.49;62.96;100715.53;5068278;28;20048;-70
2021/01/11 01:46:45;;;;;;;71.50;38.58;;;;;;;3.51;62.81;100707.63;5069743;28;20045;-70
2021/01/11 01:49:12;;;;;;;77.60;37.85;;;;;;;3.52;62.79;100712.81;5068485;28;20419;-70
2021/01/11 01:51:39;;;;;;;75.30;40.28;;;;;;;3.52;62.88;100704.13;5067786;28;20098;-71
2021/01/11 01:54:07;;;;;;;76.45;38.55;;;;;;;3.46;63.02;100705.22;5067896;28;20128;-70
2021/01/11 01:56:33;;;;;;;73.55;37.80;;;;;;;3.48;62.89;100699.94;5067636;28;20057;-69
2021/01/11 01:59:00;;;;;;;80.18;37.90;;;;;;;3.47;62.87;100695.59;5068345;28;20070;-69
2021/01/11 02:01:26;;;;;;;74.25;38.80;;;;;;;3.47;62.82;100704.28;5067949;28;20055;-70
2021/01/11 02:03:53;;;;;;;81.63;40.80;;;;;;;3.50;62.74;100700.72;5067996;28;20136;-69
2021/01/11 02:06:19;;;;;;;68.65;35.42;;;;;;;3.49;62.89;100694.63;5069275;28;20052;-71
2021/01/11 02:08:52;;;;;;;82.10;42.17;;;;;;;3.46;62.91;100694.75;5073896;28;20044;-70
2021/01/11 02:11:27;;;;;;;74.32;37.20;;;;;;;3.43;63.02;100693.09;5074383;28;20056;-70
2021/01/11 02:14:06;;;;;;;86.05;40.90;;;;;;;3.46;62.90;100689.53;5075331;28;20056;-69
2021/01/11 02:16:42;;;;;;;83.82;40.10;;;;;;;3.43;63.03;100689.66;5076627;28;20106;-70
2021/01/11 02:19:34;;;;;;;76.85;38.60;;;;;;;3.40;63.05;100688.00;5076509;28;20633;-70
2021/01/11 02:22:07;;;;;;;75.60;37.85;;;;;;;3.37;62.93;100690.72;5080017;28;20051;-70
2021/01/11 02:25:08;;;;;;;76.70;40.00;;;;;;;3.36;63.24;100680.31;5069281;28;20135;-71
2021/01/11 02:27:41;;;;;;;78.07;38.17;;;;;;;3.33;63.10;100683.03;5019839;28;20404;-70
2021/01/11 02:30:14;;;;;;;69.35;37.00;;;;;;;3.28;63.30;100675.38;5015935;28;20126;-69
2021/01/11 02:32:46;;;;;;;89.43;43.67;;;;;;;3.28;63.35;100675.38;5011910;28;20050;-71
2021/01/11 02:35:14;;;;;;;81.40;39.80;;;;;;;3.30;63.24;100678.78;5010905;28;20080;-70
2021/01/11 02:37:40;;;;;;;91.22;43.17;;;;;;;3.33;63.18;100677.81;5011482;28;20042;-69
2021/01/11 02:40:09;;;;;;;82.15;41.25;;;;;;;3.34;63.23;100671.69;5008616;28;20042;-70
2021/01/11 02:42:36;;;;;;;74.30;40.90;;;;;;;3.35;63.20;100673.38;5005599;28;20045;-69
2021/01/11 02:45:04;;;;;;;70.45;38.17;;;;;;;3.34;63.12;100669.09;5007449;28;20054;-69
2021/01/11 02:47:51;;;;;;;80.70;41.80;;;;;;;3.35;63.21;100665.56;4959662;28;20049;-71
2021/01/11 02:50:23;;;;;;;76.22;35.85;;;;;;;3.34;63.22;100663.88;5009361;28;20498;-70
2021/01/11 02:53:06;;;;;;;79.68;40.58;;;;;;;3.30;63.22;100664.91;5008856;28;20046;-70
2021/01/11 02:55:45;;;;;;;76.25;40.50;;;;;;;3.32;63.33;100663.91;5010342;28;20066;-70
2021/01/11 02:58:17;;;;;;;77.70;39.47;;;;;;;3.32;63.19;100663.91;5009880;28;20564;-69
2021/01/11 03:00:46;;;;;;;73.57;36.53;;;;;;;3.28;63.11;100659.72;5011135;28;20045;-70
2021/01/11 03:03:16;;;;;;;72.45;41.25;;;;;;;3.27;63.27;100665.00;5018680;28;20569;-71
2021/01/11 03:05:43;;;;;;;77.72;43.00;;;;;;;3.25;63.10;100662.44;5067603;28;20048;-71
2021/01/11 03:08:09;;;;;;;77.68;40.20;;;;;;;3.25;63.16;100654.59;5068894;28;20052;-70
2021/01/11 03:10:36;;;;;;;87.80;44.70;;;;;;;3.29;63.22;100650.13;5068230;28;20051;-70
2021/01/11 03:13:02;;;;;;;81.95;39.08;;;;;;;3.32;63.09;100647.41;5067202;28;20052;-71
2021/01/11 03:15:29;;;;;;;76.80;38.88;;;;;;;3.33;63.15;100646.47;5068127;28;20075;-71
2021/01/11 03:17:55;;;;;;;92.88;42.17;;;;;;;3.31;63.17;100643.09;5067310;28;20055;-72
2021/01/11 03:20:22;;;;;;;73.63;38.42;;;;;;;3.28;63.05;100638.84;5066882;28;20044;-69
2021/01/11 03:22:49;;;;;;;79.05;37.53;;;;;;;3.27;63.14;100639.72;5068300;28;20037;-70
2021/01/11 03:25:15;;;;;;;79.47;41.42;;;;;;;3.23;63.18;100633.75;5068389;28;20040;-71
2021/01/11 03:27:41;;;;;;;77.13;39.47;;;;;;;3.24;63.12;100632.88;5068177;28;20044;-69
2021/01/11 03:30:09;;;;;;;75.43;37.78;;;;;;;3.29;63.07;100635.31;5068169;28;20052;-71
2021/01/11 03:32:35;;;;;;;75.47;38.47;;;;;;;3.31;62.99;100635.25;5068415;28;20048;-70
2021/01/11 03:35:02;;;;;;;67.68;35.53;;;;;;;3.32;62.90;100631.75;5068250;28;20068;-69
2021/01/11 03:37:32;;;;;;;74.05;36.58;;;;;;;3.30;63.05;100630.94;5073278;28;20036;-70
2021/01/11 03:39:59;;;;;;;78.25;37.20;;;;;;;3.28;63.05;100636.22;5082123;28;20097;-70
2021/01/11 03:42:25;;;;;;;71.18;37.00;;;;;;;3.25;63.20;100650.22;5080376;28;20055;-71
2021/01/11 03:44:51;;;;;;;78.20;41.25;;;;;;;3.23;63.21;100645.97;5082671;28;20049;-70
2021/01/11 03:47:20;;;;;;;82.15;43.55;;;;;;;3.18;63.30;100643.50;5082755;28;20067;-69
2021/01/11 03:49:46;;;;;;;74.82;39.60;;;;;;;3.14;63.53;100646.31;5080803;28;20044;-69
2021/01/11 03:52:12;;;;;;;84.78;42.03;;;;;;;3.11;63.52;100642.03;5072596;28;20040;-69
2021/01/11 03:54:40;;;;;;;80.28;42.03;;;;;;;3.10;63.35;100632.50;5066885;28;20113;-70
2021/01/11 03:57:06;;;;;;;78.30;42.03;;;;;;;3.10;63.45;100631.63;5067520;28;20071;-71
2021/01/11 03:59:32;;;;;;;85.00;43.38;;;;;;;3.06;63.79;100633.50;5066401;28;20049;-71
2021/01/11 04:01:59;;;;;;;90.45;44.67;;;;;;;3.05;63.63;100632.66;5067425;28;20105;-70
2021/01/11 04:04:25;;;;;;;86.35;44.35;;;;;;;3.06;63.75;100638.72;5068297;28;20048;-70
2021/01/11 04:06:53;;;;;;;91.88;43.20;;;;;;;3.04;63.78;100630.97;5067314;28;20052;-70
2021/01/11 04:09:22;;;;;;;75.50;38.60;;;;;;;3.04;63.82;100628.38;5067789;28;20045;-70
2021/01/11 04:11:49;;;;;;;78.93;41.80;;;;;;;3.06;63.67;100623.06;5065087;28;20048;-70
2021/01/11 04:14:16;;;;;;;86.22;45.35;;;;;;;3.05;63.67;100627.44;5067384;28;20501;-71
2021/01/11 04:16:43;;;;;;;79.60;41.92;;;;;;;3.05;63.82;100622.22;5067473;28;20051;-72
2021/01/11 04:19:10;;;;;;;84.95;42.20;;;;;;;3.03;63.76;100612.75;5067185;28;20083;-71
2021/01/11 04:21:36;;;;;;;86.72;40.80;;;;;;;2.97;64.06;100608.63;5066114;28;20193;-71
2021/01/11 04:24:03;;;;;;;73.20;39.50;;;;;;;2.85;64.14;100609.03;5066206;28;20061;-71
2021/01/11 04:26:29;;;;;;;85.13;40.90;;;;;;;2.71;64.51;100601.69;5066672;28;20059;-72
2021/01/11 04:28:57;;;;;;;73.95;39.13;;;;;;;2.58;64.66;100606.47;5066680;28;20052;-71
2021/01/11 04:31:23;;;;;;;76.38;36.75;;;;;;;2.42;65.05;100606.13;5066420;28;20069;-71
2021/01/11 04:33:50;;;;;;;80.10;38.22;;;;;;;2.33;65.10;100609.03;5066320;28;20052;-70
2021/01/11 04:36:16;;;;;;;74.03;41.67;;;;;;;2.20;65.48;100605.97;5066290;28;20244;-70
2021/01/11 04:38:42;;;;;;;76.53;37.35;;;;;;;2.11;65.76;100606.28;5066033;28;20045;-70
2021/01/11 04:41:09;;;;;;;82.60;40.53;;;;;;;2.01;65.57;100608.31;5065282;28;20044;-70
2021/01/11 04:43:42;;;;;;;84.55;40.90;;;;;;;1.94;65.79;100603.34;5065787;28;20464;-69
2021/01/11 04:46:09;;;;;;;79.22;41.03;;;;;;;1.85;65.90;100602.72;5065319;28;20095;-68
2021/01/11 04:48:36;;;;;;;83.90;38.10;;;;;;;1.81;65.94;100605.47;5066043;28;20041;-71
2021/01/11 04:51:03;;;;;;;81.25;39.70;;;;;;;1.74;65.97;100609.16;5065804;28;20051;-70
2021/01/11 04:53:30;;;;;;;96.20;41.67;;;;;;;1.66;66.37;100605.03;5065055;28;20573;-69
2021/01/11 04:55:57;;;;;;;86.07;40.17;;;;;;;1.62;66.38;100608.63;5065554;28;20058;-71
2021/01/11 04:58:29;;;;;;;87.03;39.75;;;;;;;1.58;66.43;100607.00;5067536;28;20154;-70
2021/01/11 05:01:00;;;;;;;91.60;39.53;;;;;;;1.53;66.43;100599.34;5068332;28;20070;-70
2021/01/11 05:03:29;;;;;;;87.00;41.70;;;;;;;1.46;66.36;100590.00;5068007;28;20052;-71
2021/01/11 05:05:55;;;;;;;94.15;41.50;;;;;;;1.44;66.46;100594.41;5066558;28;20045;-71
2021/01/11 05:08:21;;;;;;;95.13;42.85;;;;;;;1.37;66.74;100598.09;5065625;28;20059;-68
2021/01/11 05:10:48;;;;;;;92.45;40.45;;;;;;;1.30;66.83;100589.59;5066402;28;20048;-70
2021/01/11 05:13:14;;;;;;;90.70;41.53;;;;;;;1.27;67.10;100594.03;5069069;28;20127;-70
2021/01/11 05:15:42;;;;;;;94.55;42.10;;;;;;;1.22;66.85;100586.34;5070100;28;20144;-70
2021/01/11 05:18:18;;;;;;;96.07;40.25;;;;;;;1.21;66.94;100583.81;5068120;28;20192;-69
2021/01/11 05:20:48;;;;;;;89.72;40.20;;;;;;;1.19;66.94;100586.47;5068850;28;20468;-70
2021/01/11 05:23:16;;;;;;;87.43;35.95;;;;;;;1.17;67.13;100590.88;5068963;28;20140;-70
2021/01/11 05:25:44;;;;;;;88.78;36.17;;;;;;;1.20;67.03;100588.16;5068122;28;20048;-70
2021/01/11 05:28:12;;;;;;;76.72;35.92;;;;;;;1.16;66.76;100583.94;5070006;28;20044;-70
2021/01/11 05:30:40;;;;;;;83.85;37.47;;;;;;;1.16;67.13;100588.28;5068951;28;20048;-70
2021/01/11 05:33:09;;;;;;;92.90;37.45;;;;;;;1.11;66.86;100578.84;5068328;28;20396;-70
2021/01/11 05:35:37;;;;;;;92.43;38.88;;;;;;;1.11;67.23;100584.06;5068730;28;20044;-70
2021/01/11 05:38:14;;;;;;;83.32;37.83;;;;;;;1.12;67.17;100585.78;5069465;28;20047;-70
2021/01/11 05:40:40;;;;;;;74.22;36.75;;;;;;;1.11;66.98;100585.81;5069182;28;20052;-70
2021/01/11 05:43:07;;;;;;;82.97;39.03;;;;;;;1.10;67.13;100589.31;5068107;28;20055;-70
2021/01/11 05:45:34;;;;;;;87.07;39.25;;;;;;;1.08;67.17;100591.09;5069367;28;20059;-70
2021/01/11 05:48:04;;;;;;;98.68;44.10;;;;;;;1.03;67.39;100595.59;5067892;28;20083;-71
2021/01/11 05:50:32;;;;;;;89.32;41.70;;;;;;;1.04;67.45;100597.28;5069904;28;20037;-70
2021/01/11 05:52:59;;;;;;;82.13;38.78;;;;;;;1.02;67.54;100597.31;5068471;28;20056;-70
2021/01/11 05:55:28;;;;;;;89.43;40.05;;;;;;;0.96;67.64;100602.69;5070048;28;20055;-69
2021/01/11 05:58:02;;;;;;;75.65;36.08;;;;;;;0.98;67.69;100605.25;5068672;28;20499;-72
2021/01/11 06:00:31;;;;;;;77.47;37.03;;;;;;;0.90;67.94;100603.72;5069664;28;20107;-70
2021/01/11 06:02:58;;;;;;;85.53;39.22;;;;;;;0.87;67.76;100606.41;5069793;28;20044;-70
2021/01/11 06:05:26;;;;;;;100.95;44.83;;;;;;;0.86;67.75;100609.03;5072061;28;20059;-69
2021/01/11 06:07:53;;;;;;;101.15;47.50;;;;;;;0.82;67.89;100610.03;5073997;28;20055;-71
2021/01/11 06:10:21;;;;;;;110.25;53.53;;;;;;;0.78;68.03;100608.41;5075804;28;20061;-69
2021/01/11 06:12:49;;;;;;;119.07;54.67;;;;;;;0.79;67.85;100616.13;5078869;28;20029;-70
2021/01/11 06:15:17;;;;;;;106.47;46.42;;;;;;;0.73;68.24;100616.31;5078750;28;20086;-69
2021/01/11 06:17:45;;;;;;;122.07;52.00;;;;;;;0.70;68.07;100617.25;5083913;28;20044;-73
2021/01/11 06:20:19;;;;;;;118.90;49.95;;;;;;;0.68;68.29;100619.00;5069735;28;20048;-71
2021/01/11 06:23:28;;;;;;;141.13;58.03;;;;;;;0.69;67.87;100617.28;5068658;28;20197;-74
2021/01/11 06:25:54;;;;;;;102.55;45.50;;;;;;;0.63;68.09;100612.22;5066111;28;20052;-73
2021/01/11 06:28:32;;;;;;;86.60;41.90;;;;;;;0.61;68.27;100624.41;5069343;28;20044;-71
2021/01/11 06:31:12;;;;;;;89.78;38.97;;;;;;;0.60;67.96;100617.53;5069220;28;20048;-72
2021/01/11 06:33:40;;;;;;;86.43;36.22;;;;;;;0.56;68.18;100619.34;5068762;28;20130;-73
2021/01/11 06:36:19;;;;;;;81.22;33.83;;;;;;;0.60;68.04;100614.94;5077813;28;20036;-80
2021/01/11 06:38:47;;;;;;;97.10;37.50;;;;;;;0.59;67.79;100616.66;5069052;28;20052;-73
2021/01/11 06:41:15;;;;;;;72.70;33.05;;;;;;;0.59;67.67;100618.41;5072561;28;20048;-75
2021/01/11 06:43:48;;;;;;;78.00;34.33;;;;;;;0.57;67.85;100614.09;5071971;28;20430;-70
2021/01/11 06:46:44;;;;;;;80.28;31.73;;;;;;;0.60;67.77;100615.78;5067352;28;20211;-78
2021/01/11 06:49:23;;;;;;;82.03;35.78;;;;;;;0.60;67.36;100609.72;5066395;28;20073;-73
2021/01/11 06:52:02;;;;;;;74.82;32.30;;;;;;;0.57;67.60;100610.66;5068647;28;20064;-73
2021/01/11 06:54:41;;;;;;;75.70;33.50;;;;;;;0.59;67.58;100610.63;5070478;28;20052;-72
2021/01/11 06:57:09;;;;;;;90.60;37.85;;;;;;;0.59;67.57;100619.25;5070269;28;20466;-75
2021/01/11 06:59:38;;;;;;;92.38;38.03;;;;;;;0.64;67.64;100616.56;5065312;28;20044;-73
2021/01/11 07:02:41;;;;;;;87.85;38.30;;;;;;;0.69;67.62;100620.72;5067571;28;20048;-73
2021/01/11 07:05:29;;;;;;;89.05;40.90;;;;;;;0.70;67.30;100626.78;5003265;28;20175;-71
2021/01/11 07:08:01;;;;;;;102.18;44.30;;;;;;;0.70;67.35;100616.38;5002969;28;20050;-73
2021/01/11 07:10:28;;;;;;;86.03;42.05;;;;;;;0.73;67.48;100621.50;5004280;28;20498;-73
2021/01/11 07:13:28;;;;;;;87.47;37.13;;;;;;;0.78;67.33;100626.59;5002994;28;20053;-77
2021/01/11 07:16:16;;;;;;;83.15;39.45;;;;;;;0.83;67.30;100628.19;5005193;28;20057;-72
2021/01/11 07:18:53;;;;;;;96.85;39.55;;;;;;;0.86;67.39;100627.25;5002794;28;20045;-74
2021/01/11 07:21:26;;;;;;;109.80;46.20;;;;;;;0.88;67.17;100630.66;5002185;28;20136;-69
2021/01/11 07:23:55;;;;;;;115.68;50.85;;;;;;;0.92;67.13;100627.09;5004610;28;21667;-73
2021/01/11 07:26:23;;;;;;;106.55;47.25;;;;;;;0.95;67.34;100630.47;5004002;28;20046;-74
2021/01/11 07:28:58;;;;;;;101.28;47.67;;;;;;;1.01;67.26;100625.97;5005906;28;20054;-72
2021/01/11 07:31:28;;;;;;;100.43;43.80;;;;;;;1.08;67.13;100620.59;5003010;28;20176;-72
2021/01/11 07:34:01;;;;;;;95.65;41.70;;;;;;;1.11;67.53;100622.22;5002733;28;20046;-73
2021/01/11 07:36:28;;;;;;;108.43;46.22;;;;;;;1.17;67.15;100624.69;5003755;28;20060;-74
2021/01/11 07:42:19;;;;;;;95.97;43.10;;;;;;;1.27;66.80;100633.06;5041052;28;20044;-74
2021/01/11 07:44:46;;;;;;;74.20;35.17;;;;;;;1.27;67.05;100633.06;5045448;28;20053;-73
2021/01/11 07:47:15;;;;;;;86.57;37.17;;;;;;;1.28;67.04;100638.25;5045884;28;20052;-73
2021/01/11 07:49:43;;;;;;;70.18;32.85;;;;;;;1.30;66.89;100633.84;5045843;28;20055;-74
2021/01/11 07:52:11;;;;;;;81.40;38.17;;;;;;;1.32;66.93;100637.25;5045636;28;20053;-73
2021/01/11 07:54:40;;;;;;;73.30;33.67;;;;;;;1.30;67.49;100639.03;5045567;28;20040;-72
2021/01/11 07:57:10;;;;;;;65.03;30.65;;;;;;;1.31;67.33;100634.69;5027218;28;20049;-72
2021/01/11 07:59:38;;;;;;;70.18;31.63;;;;;;;1.34;67.45;100637.22;5047797;28;20622;-78
2021/01/11 08:02:10;;;;;;;67.68;29.65;;;;;;;1.35;67.32;100638.91;5052581;28;20047;-74
2021/01/11 08:04:38;;;;;;;73.65;34.85;;;;;;;1.38;66.96;100633.63;5045761;28;20056;-72
2021/01/11 08:07:06;;;;;;;69.75;32.92;;;;;;;1.38;67.33;100631.00;5048130;28;20055;-73
2021/01/11 08:09:34;;;;;;;73.57;34.17;;;;;;;1.40;67.39;100631.81;5048279;28;20045;-73
2021/01/11 08:12:05;;;;;;;68.18;29.92;;;;;;;1.42;67.26;100637.81;5041906;28;20090;-73
2021/01/11 08:14:32;;;;;;;68.63;30.77;;;;;;;1.43;66.98;100638.69;5045029;28;20049;-77
2021/01/11 08:17:01;;;;;;;77.13;33.38;;;;;;;1.45;66.93;100642.13;5043913;28;20056;-73
2021/01/11 08:19:28;;;;;;;69.13;30.48;;;;;;;1.39;67.00;100642.28;5043080;28;20045;-73
2021/01/11 08:21:59;;;;;;;66.53;27.77;;;;;;;1.43;67.14;100641.31;5044742;28;20078;-69
2021/01/11 08:24:26;;;;;;;73.80;31.05;;;;;;;1.48;66.84;100648.09;5049127;28;20067;-73
2021/01/11 08:27:02;;;;;;;78.15;33.65;;;;;;;1.53;66.48;100645.34;5062821;28;20048;-73
2021/01/11 08:29:32;;;;;;;64.70;28.25;;;;;;;1.65;65.98;100638.94;5063750;28;20052;-76
2021/01/11 08:31:59;;;;;;;70.35;29.50;;;;;;;1.64;65.88;100640.69;5064204;28;20105;-75
2021/01/11 08:34:26;;;;;;;71.93;28.35;;;;;;;1.69;65.65;100640.53;5061752;28;20067;-74
2021/01/11 08:36:53;;;;;;;74.35;31.30;;;;;;;1.67;65.79;100637.13;5062909;28;20059;-74
2021/01/11 08:39:20;;;;;;;66.47;27.88;;;;;;;1.77;65.48;100642.94;5061490;28;20051;-74
2021/01/11 08:41:53;;;;;;;70.88;27.02;;;;;;;1.86;65.23;100647.88;5061734;28;20048;-73
2021/01/11 08:44:31;;;;;;;61.63;25.60;;;;;;;1.87;65.26;100639.13;5060396;28;20044;-73
2021/01/11 08:47:07;;;;;;;82.95;33.30;;;;;;;1.82;64.97;100635.81;5062442;28;20048;-73
2021/01/11 08:49:34;;;;;;;55.78;25.73;;;;;;;1.86;65.10;100642.66;5060602;28;20047;-72
2021/01/11 08:52:09;;;;;;;61.17;25.48;;;;;;;1.82;64.99;100635.81;5051435;28;20040;-74
2021/01/11 08:54:37;;;;;;;65.03;26.90;;;;;;;1.88;65.12;100633.03;5047129;28;20140;-72
2021/01/11 08:57:12;;;;;;;62.58;26.73;;;;;;;1.99;64.82;100636.16;5049927;28;20105;-70
2021/01/11 08:59:49;;;;;;;57.58;23.55;;;;;;;2.06;65.02;100642.88;5051384;28;20048;-75
2021/01/11 09:02:26;;;;;;;55.97;26.00;;;;;;;2.04;64.93;100639.47;5050929;28;20052;-72
2021/01/11 09:04:54;;;;;;;53.25;20.27;;;;;;;2.00;65.02;100643.09;5049743;28;20045;-71
2021/01/11 09:07:30;;;;;;;51.53;22.30;;;;;;;2.13;64.84;100634.91;5055069;28;20048;-71
2021/01/11 09:09:59;;;;;;;49.90;25.27;;;;;;;2.21;64.60;100635.50;5050599;28;20403;-71
2021/01/11 09:12:33;;;;;;;56.85;24.08;;;;;;;2.29;64.44;100636.09;5051335;28;20044;-74
2021/01/11 09:14:59;;;;;;;53.90;21.35;;;;;;;2.36;64.23;100632.41;5047861;28;20057;-71
2021/01/11 09:17:27;;;;;;;59.17;25.15;;;;;;;2.32;64.63;100641.19;5048578;28;20139;-71
2021/01/11 09:19:54;;;;;;;59.30;25.55;;;;;;;2.27;64.59;100637.91;5052020;28;20049;-75
2021/01/11 09:22:33;;;;;;;55.42;22.00;;;;;;;2.20;64.84;100644.22;5051891;28;20056;-72
2021/01/11 09:25:03;;;;;;;45.17;21.55;;;;;;;2.23;64.59;100638.91;5054243;28;20060;-73
2021/01/11 09:27:30;;;;;;;56.67;23.73;;;;;;;2.13;64.88;100633.13;5055689;28;20128;-73
2021/01/11 09:29:57;;;;;;;55.70;19.60;;;;;;;2.08;64.76;100642.84;5047961;28;20106;-73
2021/01/11 09:32:23;;;;;;;51.28;23.20;;;;;;;2.14;64.77;100636.59;5049023;28;20124;-70
2021/01/11 09:34:52;;;;;;;49.63;23.80;;;;;;;2.24;64.63;100630.19;5052551;28;20048;-73
2021/01/11 09:37:19;;;;;;;58.47;23.45;;;;;;;2.36;64.56;100639.34;5050045;28;20083;-70
2021/01/11 09:39:45;;;;;;;37.05;18.90;;;;;;;2.48;64.46;100623.31;5045673;28;20037;-73
2021/01/11 09:42:14;;;;;;;45.28;21.33;;;;;;;2.79;63.67;100624.88;5046227;28;20041;-70
2021/01/11 09:44:41;;;;;;;50.83;22.65;;;;;;;3.37;62.12;100622.00;5041312;28;20075;-68
2021/01/11 09:47:08;;;;;;;51.60;22.20;;;;;;;3.46;61.72;100616.41;5038695;28;20053;-70
2021/01/11 09:49:34;;;;;;;43.78;22.17;;;;;;;3.38;62.05;100618.44;5038343;28;20045;-67
2021/01/11 09:52:01;;;;;;;46.80;24.02;;;;;;;3.72;61.71;100615.41;5039342;28;20045;-68
2021/01/11 09:54:28;;;;;;;44.35;21.75;;;;;;;4.20;60.44;100616.19;5037635;28;20045;-70
2021/01/11 09:56:57;;;;;;;38.22;19.52;;;;;;;4.61;59.55;100608.41;5040099;28;20045;-69
2021/01/11 09:59:25;;;;;;;36.50;18.08;;;;;;;4.27;59.98;100609.78;5041583;28;20049;-69
2021/01/11 10:01:52;;;;;;;47.55;22.38;;;;;;;3.99;60.67;100613.50;5041282;28;20111;-68
2021/01/11 10:04:19;;;;;;;47.03;22.30;;;;;;;3.67;61.29;100606.91;5043990;28;20196;-68
2021/01/11 10:06:48;;;;;;;47.47;26.20;;;;;;;3.64;61.44;100613.13;5040757;28;20605;-69
2021/01/11 10:09:16;;;;;;;43.88;20.00;;;;;;;3.78;61.40;100609.09;5041898;28;20118;-68
2021/01/11 10:11:45;;;;;;;38.13;19.00;;;;;;;3.64;61.35;100607.03;5040751;28;20045;-69
2021/01/11 10:14:12;;;;;;;44.15;21.67;;;;;;;3.49;61.49;100611.06;5043280;28;20159;-69
2021/01/11 10:16:44;;;;;;;44.35;22.15;;;;;;;3.36;61.74;100607.22;5042262;28;20111;-71
2021/01/11 10:19:15;;;;;;;42.08;21.55;;;;;;;3.22;61.99;100598.16;5041495;28;20045;-68
2021/01/11 10:21:42;;;;;;;44.60;22.88;;;;;;;3.28;61.95;100604.03;5040972;28;20049;-69
2021/01/11 10:24:10;;;;;;;44.83;21.83;;;;;;;3.31;61.95;100596.09;5041586;28;21135;-69
2021/01/11 10:26:36;;;;;;;24.95;13.77;;;;;;;3.45;61.58;100604.25;5041134;28;20045;-70
2021/01/11 10:29:04;;;;;;;46.53;21.45;;;;;;;3.56;61.40;100602.09;5041689;28;20071;-70
2021/01/11 10:31:30;;;;;;;42.92;20.98;;;;;;;3.72;61.19;100598.91;5041662;28;20040;-69
2021/01/11 10:33:58;;;;;;;50.17;26.02;;;;;;;3.88;60.97;100593.94;5040971;28;20052;-69
2021/01/11 10:36:25;;;;;;;39.95;19.73;;;;;;;3.94;60.72;100597.19;5041748;28;20099;-69
2021/01/11 10:38:52;;;;;;;40.95;19.23;;;;;;;3.88;60.61;100602.63;5040783;28;20053;-69
2021/01/11 10:41:21;;;;;;;40.78;18.58;;;;;;;3.77;60.71;100600.44;5037839;28;20049;-68
2021/01/11 10:43:48;;;;;;;35.42;17.27;;;;;;;3.67;60.88;100595.63;5039733;28;20099;-69
2021/01/11 10:46:16;;;;;;;31.95;17.40;;;;;;;3.62;60.68;100596.66;5039418;28;20098;-68
2021/01/11 10:48:43;;;;;;;34.47;17.05;;;;;;;3.60;60.65;100597.59;5040136;28;20110;-70
2021/01/11 10:51:11;;;;;;;38.65;18.02;;;;;;;3.37;60.91;100591.50;5039521;28;20060;-69
2021/01/11 10:53:39;;;;;;;40.08;18.77;;;;;;;3.29;61.02;100592.69;5038588;28;20164;-69
2021/01/11 10:56:06;;;;;;;34.38;16.30;;;;;;;3.27;61.08;100595.34;5037903;28;20489;-68
2021/01/11 10:58:33;;;;;;;32.78;15.27;;;;;;;3.33;60.91;100583.81;5038737;28;20052;-70
2021/01/11 11:00:59;;;;;;;36.97;19.50;;;;;;;3.44;60.82;100579.91;5038796;28;20049;-69
2021/01/11 11:03:26;;;;;;;41.38;18.02;;;;;;;3.57;60.49;100576.84;5038550;28;20546;-68
2021/01/11 11:05:53;;;;;;;39.63;20.65;;;;;;;3.64;60.33;100575.69;5037923;28;20098;-69
2021/01/11 11:08:20;;;;;;;41.58;19.50;;;;;;;3.64;60.55;100563.47;5035960;28;20049;-69
2021/01/11 11:10:46;;;;;;;47.33;22.42;;;;;;;3.64;60.26;100566.09;5037468;28;20076;-69
2021/01/11 11:13:13;;;;;;;44.03;19.75;;;;;;;3.68;60.49;100564.22;5037791;28;20220;-69
2021/01/11 11:15:43;;;;;;;44.00;20.27;;;;;;;3.74;60.37;100560.50;5038463;28;20160;-69
2021/01/11 11:18:09;;;;;;;41.25;19.70;;;;;;;3.76;60.31;100567.38;5037589;28;20049;-71
2021/01/11 11:20:36;;;;;;;37.95;18.00;;;;;;;3.72;60.39;100557.09;5039312;28;20131;-69
2021/01/11 11:23:02;;;;;;;28.48;15.13;;;;;;;3.67;60.18;100556.44;5038089;28;20096;-69
2021/01/11 11:25:30;;;;;;;47.92;22.77;;;;;;;3.56;60.12;100554.22;5037869;28;20048;-67
2021/01/11 11:27:57;;;;;;;41.58;17.80;;;;;;;3.59;60.39;100554.97;5038897;28;20065;-72
2021/01/11 11:30:24;;;;;;;49.97;20.48;;;;;;;3.59;60.42;100554.13;5037289;28;20049;-72